Time;durP1;ratioP1;P1;durP2;ratioP2;P2;SDS_P1;SDS_P2;PMS_P1;PMS_P2;Temp;Humidity;BMP_temperature;BMP_pressure;BME280_temperature;BME280_humidity;BME280_pressure;Samples;Min_cycle;Max_cycle;Signal;HPM_P1;HPM_P2
2020/12/17 00:01:55;;;;;;;39.87;36.27;;;;;;;;;;5077028;28;20257;-77
2020/12/17 00:04:22;;;;;;;38.30;34.97;;;;;;;;;;5059587;28;20808;-77
2020/12/17 00:06:49;;;;;;;36.93;33.63;;;;;;;;;;5077168;28;20415;-77
2020/12/17 00:09:17;;;;;;;38.40;34.83;;;;;;;;;;5076757;28;20445;-77
2020/12/17 00:11:44;;;;;;;38.13;34.65;;;;;;;;;;5076876;28;20644;-77
2020/12/17 00:14:11;;;;;;;35.08;31.77;;;;;;;;;;5077363;28;20241;-77
2020/12/17 00:16:38;;;;;;;36.80;33.47;;;;;;;;;;5076660;28;20597;-77
2020/12/17 00:19:05;;;;;;;38.05;34.28;;;;;;;;;;5076876;28;20991;-77
2020/12/17 00:21:32;;;;;;;37.35;34.00;;;;;;;;;;5076664;28;20190;-78
2020/12/17 00:23:59;;;;;;;37.07;33.50;;;;;;;;;;5076843;28;20213;-77
2020/12/17 00:26:27;;;;;;;37.97;34.65;;;;;;;;;;5076994;28;20414;-77
2020/12/17 00:28:53;;;;;;;37.72;34.28;;;;;;;;;;5076793;28;20203;-77
2020/12/17 00:31:21;;;;;;;38.50;34.80;;;;;;;;;;5076449;28;20197;-77
2020/12/17 00:33:48;;;;;;;38.73;35.03;;;;;;;;;;5076687;28;20441;-77
2020/12/17 00:36:17;;;;;;;35.60;32.27;;;;;;;;;;5076726;28;20831;-77
2020/12/17 00:38:44;;;;;;;38.00;34.60;;;;;;;;;;5076246;28;20458;-78
2020/12/17 00:41:12;;;;;;;38.00;34.50;;;;;;;;;;5076976;28;20451;-78
2020/12/17 00:43:40;;;;;;;37.03;33.43;;;;;;;;;;5076517;28;20437;-77
2020/12/17 00:46:07;;;;;;;37.87;34.40;;;;;;;;;;5076016;28;20816;-78
2020/12/17 00:48:34;;;;;;;37.07;33.40;;;;;;;;;;5058526;28;20411;-78
2020/12/17 00:51:01;;;;;;;38.80;35.30;;;;;;;;;;5076135;28;20944;-77
2020/12/17 00:53:28;;;;;;;36.30;32.90;;;;;;;;;;5075340;28;20194;-77
2020/12/17 00:55:55;;;;;;;40.20;36.40;;;;;;;;;;5075859;28;20431;-77
2020/12/17 00:58:22;;;;;;;39.38;35.78;;;;;;;;;;5075908;28;20834;-77
2020/12/17 01:00:50;;;;;;;39.10;35.60;;;;;;;;;;5075945;28;20233;-76
2020/12/17 01:03:17;;;;;;;38.23;34.90;;;;;;;;;;5075916;28;21001;-77
2020/12/17 01:05:44;;;;;;;38.07;34.70;;;;;;;;;;5076069;28;20459;-77
2020/12/17 01:08:11;;;;;;;38.17;34.47;;;;;;;;;;5075953;28;20897;-76
2020/12/17 01:10:37;;;;;;;37.93;34.53;;;;;;;;;;5076500;28;20505;-77
2020/12/17 01:13:04;;;;;;;37.03;33.63;;;;;;;;;;5076123;28;20808;-77
2020/12/17 01:15:31;;;;;;;37.27;34.00;;;;;;;;;;5058045;28;20611;-76
2020/12/17 01:17:59;;;;;;;35.67;32.30;;;;;;;;;;5076030;28;20577;-77
2020/12/17 01:20:26;;;;;;;37.65;33.88;;;;;;;;;;5075735;28;20702;-77
2020/12/17 01:22:54;;;;;;;37.50;34.30;;;;;;;;;;5075579;28;20195;-77
2020/12/17 01:25:21;;;;;;;37.92;34.33;;;;;;;;;;5076820;28;20547;-77
2020/12/17 01:27:48;;;;;;;37.57;34.03;;;;;;;;;;5075862;28;20190;-77
2020/12/17 01:30:15;;;;;;;36.70;33.60;;;;;;;;;;5075695;28;20485;-77
2020/12/17 01:32:41;;;;;;;36.60;33.17;;;;;;;;;;5075297;28;20419;-77
2020/12/17 01:35:09;;;;;;;37.90;34.60;;;;;;;;;;5075278;28;20445;-77
2020/12/17 01:37:36;;;;;;;40.17;35.93;;;;;;;;;;5058323;28;20485;-76
2020/12/17 01:40:04;;;;;;;35.67;32.38;;;;;;;;;;5075778;28;20449;-77
2020/12/17 01:42:31;;;;;;;36.73;33.33;;;;;;;;;;5075293;28;20207;-76
2020/12/17 01:44:57;;;;;;;36.50;33.20;;;;;;;;;;5074998;28;20426;-77
2020/12/17 01:47:32;;;;;;;36.15;32.95;;;;;;;;;;5075514;28;20426;-77
2020/12/17 01:49:59;;;;;;;36.20;32.60;;;;;;;;;;5075399;28;20194;-77
2020/12/17 01:52:27;;;;;;;37.40;33.80;;;;;;;;;;5075353;28;20433;-77
2020/12/17 01:54:54;;;;;;;36.63;33.30;;;;;;;;;;5075218;28;20457;-77
2020/12/17 01:57:22;;;;;;;35.57;32.13;;;;;;;;;;5075373;28;20464;-77
2020/12/17 01:59:50;;;;;;;34.90;31.63;;;;;;;;;;5075262;28;20824;-76
2020/12/17 02:02:17;;;;;;;38.70;35.23;;;;;;;;;;5057001;28;20556;-76
2020/12/17 02:04:44;;;;;;;35.83;32.43;;;;;;;;;;5074978;28;20485;-76
2020/12/17 02:07:11;;;;;;;34.83;31.73;;;;;;;;;;5074951;28;20412;-77
2020/12/17 02:09:40;;;;;;;35.40;32.35;;;;;;;;;;5074875;28;20477;-77
2020/12/17 02:12:07;;;;;;;37.43;33.67;;;;;;;;;;5074861;28;20281;-77
2020/12/17 02:14:34;;;;;;;34.72;31.65;;;;;;;;;;5074880;28;20453;-77
2020/12/17 02:17:01;;;;;;;36.10;32.60;;;;;;;;;;5074914;28;20198;-77
2020/12/17 02:19:28;;;;;;;35.70;32.50;;;;;;;;;;5073945;28;20517;-77
2020/12/17 02:21:56;;;;;;;36.17;32.97;;;;;;;;;;5075766;28;20416;-77
2020/12/17 02:24:24;;;;;;;36.20;32.80;;;;;;;;;;5074865;28;20444;-77
2020/12/17 02:26:51;;;;;;;33.30;30.30;;;;;;;;;;5074588;28;20491;-77
2020/12/17 02:29:18;;;;;;;35.80;32.83;;;;;;;;;;5074466;28;20938;-77
2020/12/17 02:31:45;;;;;;;34.70;31.67;;;;;;;;;;5056815;28;20419;-77
2020/12/17 02:34:13;;;;;;;35.27;32.07;;;;;;;;;;5074281;28;20917;-77
2020/12/17 02:36:40;;;;;;;35.20;32.07;;;;;;;;;;5074490;28;20845;-76
2020/12/17 02:39:07;;;;;;;33.60;30.77;;;;;;;;;;5074126;28;20580;-77
2020/12/17 02:41:34;;;;;;;32.87;30.07;;;;;;;;;;5074089;28;20942;-77
2020/12/17 02:44:01;;;;;;;34.57;31.50;;;;;;;;;;5074257;28;20441;-77
2020/12/17 02:46:28;;;;;;;35.10;31.87;;;;;;;;;;5074295;28;20473;-77
2020/12/17 02:48:56;;;;;;;33.97;31.20;;;;;;;;;;5056268;28;20448;-77
2020/12/17 02:51:23;;;;;;;35.70;32.60;;;;;;;;;;5074334;28;20430;-77
2020/12/17 02:53:50;;;;;;;33.70;30.90;;;;;;;;;;5056159;28;20428;-77
2020/12/17 02:56:17;;;;;;;34.40;31.60;;;;;;;;;;5073780;28;20437;-77
2020/12/17 02:58:45;;;;;;;36.60;32.97;;;;;;;;;;5074180;28;20301;-77
2020/12/17 03:01:12;;;;;;;33.83;30.97;;;;;;;;;;5073635;28;20765;-76
2020/12/17 03:03:39;;;;;;;33.20;30.40;;;;;;;;;;5073581;28;20840;-77
2020/12/17 03:06:06;;;;;;;33.83;31.17;;;;;;;;;;5073828;28;20456;-77
2020/12/17 03:08:33;;;;;;;35.60;32.43;;;;;;;;;;5073776;28;20188;-77
2020/12/17 03:11:00;;;;;;;34.40;31.47;;;;;;;;;;5073726;28;20440;-76
2020/12/17 03:13:26;;;;;;;32.37;29.70;;;;;;;;;;5073859;28;20536;-77
2020/12/17 03:15:54;;;;;;;31.90;29.40;;;;;;;;;;5055651;28;20494;-77
2020/12/17 03:18:21;;;;;;;33.33;30.50;;;;;;;;;;5073879;28;20488;-77
2020/12/17 03:20:48;;;;;;;33.93;30.87;;;;;;;;;;5073516;28;20645;-76
2020/12/17 03:23:15;;;;;;;33.80;31.10;;;;;;;;;;5073840;28;20424;-76
2020/12/17 03:25:42;;;;;;;33.53;30.93;;;;;;;;;;5073832;28;20423;-76
2020/12/17 03:28:09;;;;;;;33.70;30.85;;;;;;;;;;5073872;28;20414;-77
2020/12/17 03:30:35;;;;;;;31.13;28.73;;;;;;;;;;5073638;28;20194;-77
2020/12/17 03:33:03;;;;;;;33.27;30.20;;;;;;;;;;5073663;28;20445;-77
2020/12/17 03:35:30;;;;;;;32.63;30.08;;;;;;;;;;5055756;28;20935;-77
2020/12/17 03:37:58;;;;;;;33.70;31.03;;;;;;;;;;5073610;28;20222;-76
2020/12/17 03:40:26;;;;;;;31.30;28.87;;;;;;;;;;5073805;28;20440;-77
2020/12/17 03:42:53;;;;;;;32.63;29.73;;;;;;;;;;5073741;28;20530;-77
2020/12/17 03:45:19;;;;;;;32.50;29.90;;;;;;;;;;5073316;28;20962;-77
2020/12/17 03:47:46;;;;;;;31.07;28.70;;;;;;;;;;5073265;28;20448;-77
2020/12/17 03:50:14;;;;;;;31.73;29.13;;;;;;;;;;5055744;28;20420;-77
2020/12/17 03:52:41;;;;;;;31.73;29.13;;;;;;;;;;5073612;28;20437;-77
2020/12/17 03:55:08;;;;;;;30.93;28.43;;;;;;;;;;5073494;28;20438;-77
2020/12/17 03:57:35;;;;;;;31.60;29.03;;;;;;;;;;5073574;28;20444;-77
2020/12/17 04:00:02;;;;;;;30.30;27.75;;;;;;;;;;5073516;28;20437;-76
2020/12/17 04:02:29;;;;;;;31.03;28.43;;;;;;;;;;5073008;28;20223;-77
2020/12/17 04:04:55;;;;;;;33.07;30.33;;;;;;;;;;5073521;28;20498;-77
2020/12/17 04:07:23;;;;;;;30.87;28.50;;;;;;;;;;5072987;28;20889;-77
2020/12/17 04:09:50;;;;;;;30.80;28.40;;;;;;;;;;5073594;28;20427;-77
2020/12/17 04:12:17;;;;;;;31.57;29.10;;;;;;;;;;5073789;28;20441;-76
2020/12/17 04:14:44;;;;;;;31.90;29.30;;;;;;;;;;5073380;28;20412;-76
2020/12/17 04:17:11;;;;;;;30.57;28.17;;;;;;;;;;5073065;28;20417;-77
2020/12/17 04:19:37;;;;;;;28.25;25.95;;;;;;;;;;5073183;28;20876;-77
2020/12/17 04:22:05;;;;;;;31.97;29.37;;;;;;;;;;5073340;28;20639;-76
2020/12/17 04:24:33;;;;;;;32.30;29.87;;;;;;;;;;5072945;28;20924;-77
2020/12/17 04:26:59;;;;;;;29.85;27.55;;;;;;;;;;5073787;28;20427;-77
2020/12/17 04:29:26;;;;;;;31.17;28.70;;;;;;;;;;5077015;28;20535;-77
2020/12/17 04:31:53;;;;;;;30.90;28.52;;;;;;;;;;5076840;28;20408;-76
2020/12/17 04:34:20;;;;;;;30.13;27.67;;;;;;;;;;5077077;28;20187;-76
2020/12/17 04:36:47;;;;;;;31.53;28.90;;;;;;;;;;5076607;28;20426;-76
2020/12/17 04:39:14;;;;;;;29.43;27.00;;;;;;;;;;5076559;28;20532;-77
2020/12/17 04:41:44;;;;;;;31.33;28.83;;;;;;;;;;5076391;28;20412;-77
2020/12/17 04:44:12;;;;;;;31.80;28.80;;;;;;;;;;5076724;28;20281;-77
2020/12/17 04:46:38;;;;;;;31.77;29.30;;;;;;;;;;5076556;28;20451;-77
2020/12/17 04:49:06;;;;;;;33.13;30.27;;;;;;;;;;5077147;28;20190;-76
2020/12/17 04:51:35;;;;;;;32.60;30.00;;;;;;;;;;5076683;28;20215;-77
2020/12/17 04:54:02;;;;;;;32.28;29.60;;;;;;;;;;5076227;28;20881;-77
2020/12/17 04:56:33;;;;;;;33.33;30.60;;;;;;;;;;5076411;28;20230;-77
2020/12/17 04:59:01;;;;;;;31.90;29.20;;;;;;;;;;5076474;28;20222;-77
2020/12/17 05:01:32;;;;;;;35.40;32.37;;;;;;;;;;5075960;28;20411;-76
2020/12/17 05:03:59;;;;;;;33.20;30.30;;;;;;;;;;5076047;28;20548;-76
2020/12/17 05:06:27;;;;;;;35.07;32.17;;;;;;;;;;5075833;28;20487;-77
2020/12/17 05:08:54;;;;;;;49.22;44.63;;;;;;;;;;5076246;28;20494;-77
2020/12/17 05:11:21;;;;;;;48.88;44.50;;;;;;;;;;5076249;28;20191;-77
2020/12/17 05:13:48;;;;;;;34.40;31.50;;;;;;;;;;5057955;28;20202;-77
2020/12/17 05:16:16;;;;;;;42.63;39.03;;;;;;;;;;5075978;28;20427;-77
2020/12/17 05:18:43;;;;;;;33.50;30.80;;;;;;;;;;5076069;28;20451;-77
2020/12/17 05:21:10;;;;;;;36.73;33.77;;;;;;;;;;5076058;28;20415;-77
2020/12/17 05:23:38;;;;;;;35.47;32.50;;;;;;;;;;5075591;28;20418;-76
2020/12/17 05:26:05;;;;;;;39.87;36.50;;;;;;;;;;5075685;28;20455;-76
2020/12/17 05:28:32;;;;;;;34.72;31.80;;;;;;;;;;5057859;28;20449;-76
2020/12/17 05:30:59;;;;;;;36.90;33.60;;;;;;;;;;5075706;28;20681;-77
2020/12/17 05:33:27;;;;;;;34.93;31.83;;;;;;;;;;5057691;28;20446;-77
2020/12/17 05:35:54;;;;;;;38.40;34.88;;;;;;;;;;5075629;28;20420;-77
2020/12/17 05:38:23;;;;;;;37.90;34.67;;;;;;;;;;5074860;28;20687;-76
2020/12/17 05:40:50;;;;;;;39.87;36.27;;;;;;;;;;5075417;28;20415;-77
2020/12/17 05:43:21;;;;;;;36.70;33.60;;;;;;;;;;5075306;28;20498;-77
2020/12/17 05:45:48;;;;;;;36.97;33.90;;;;;;;;;;5075342;28;20873;-77
2020/12/17 05:48:16;;;;;;;39.17;35.87;;;;;;;;;;5075154;28;20403;-77
2020/12/17 05:50:51;;;;;;;37.00;33.70;;;;;;;;;;5075163;28;20918;-77
2020/12/17 05:53:18;;;;;;;36.37;33.13;;;;;;;;;;5075109;28;20444;-76
2020/12/17 05:55:45;;;;;;;37.10;33.80;;;;;;;;;;5074705;28;20450;-77
2020/12/17 05:58:12;;;;;;;38.83;35.30;;;;;;;;;;5075426;28;20210;-77
2020/12/17 06:00:39;;;;;;;36.90;33.80;;;;;;;;;;5074756;28;20195;-76
2020/12/17 06:03:10;;;;;;;39.70;35.63;;;;;;;;;;5074642;28;20470;-77
2020/12/17 06:05:42;;;;;;;35.73;32.67;;;;;;;;;;5075481;28;20798;-77
2020/12/17 06:08:13;;;;;;;35.23;32.33;;;;;;;;;;5074729;28;20857;-77
2020/12/17 06:10:46;;;;;;;36.90;33.70;;;;;;;;;;5074962;28;20430;-77
2020/12/17 06:13:15;;;;;;;39.10;35.70;;;;;;;;;;5074820;28;20473;-77
2020/12/17 06:15:44;;;;;;;37.97;34.60;;;;;;;;;;5074759;28;20420;-77
2020/12/17 06:18:12;;;;;;;37.87;34.60;;;;;;;;;;5074582;28;20512;-77
2020/12/17 06:20:38;;;;;;;37.93;34.50;;;;;;;;;;5074337;28;20531;-76
2020/12/17 06:23:06;;;;;;;36.77;33.60;;;;;;;;;;5074756;28;20434;-77
2020/12/17 06:25:35;;;;;;;37.20;33.93;;;;;;;;;;5074575;28;20416;-76
2020/12/17 06:28:02;;;;;;;38.57;34.87;;;;;;;;;;5074575;28;20539;-77
2020/12/17 06:30:30;;;;;;;36.63;33.57;;;;;;;;;;5075275;28;20411;-77
2020/12/17 06:32:58;;;;;;;35.28;32.47;;;;;;;;;;5074484;28;20419;-76
2020/12/17 06:35:40;;;;;;;34.67;31.83;;;;;;;;;;5074438;28;20604;-77
2020/12/17 06:38:07;;;;;;;35.85;32.85;;;;;;;;;;5074187;28;20567;-77
2020/12/17 06:40:35;;;;;;;37.17;33.78;;;;;;;;;;5074469;28;20222;-77
2020/12/17 06:43:03;;;;;;;35.60;32.23;;;;;;;;;;5074229;28;20210;-77
2020/12/17 06:45:32;;;;;;;35.77;32.77;;;;;;;;;;5074315;28;20455;-77
2020/12/17 06:47:59;;;;;;;34.53;31.63;;;;;;;;;;5074245;28;20427;-76
2020/12/17 06:50:27;;;;;;;35.00;32.00;;;;;;;;;;5073747;28;20434;-77
2020/12/17 06:53:04;;;;;;;33.97;31.07;;;;;;;;;;5074177;28;20226;-76
2020/12/17 06:55:42;;;;;;;35.27;32.17;;;;;;;;;;5056532;28;20501;-77
2020/12/17 06:58:17;;;;;;;35.47;32.67;;;;;;;;;;5073655;28;20824;-77
2020/12/17 07:00:44;;;;;;;35.50;32.60;;;;;;;;;;5056104;28;20456;-77
2020/12/17 07:03:11;;;;;;;35.07;32.00;;;;;;;;;;5073029;28;20485;-77
2020/12/17 07:05:39;;;;;;;37.07;33.43;;;;;;;;;;5072851;28;20412;-76
2020/12/17 07:08:06;;;;;;;35.00;32.10;;;;;;;;;;5074883;28;20422;-77
2020/12/17 07:10:33;;;;;;;34.47;31.73;;;;;;;;;;5074054;28;20412;-77
2020/12/17 07:13:01;;;;;;;38.13;34.83;;;;;;;;;;5055774;28;20415;-77
2020/12/17 07:15:35;;;;;;;34.23;31.43;;;;;;;;;;5073653;28;20533;-77
2020/12/17 07:18:18;;;;;;;34.80;32.00;;;;;;;;;;5073866;28;20441;-76
2020/12/17 07:20:45;;;;;;;34.93;31.93;;;;;;;;;;5073073;28;20423;-76
2020/12/17 07:23:15;;;;;;;33.70;31.10;;;;;;;;;;5074047;28;20428;-76
2020/12/17 07:25:42;;;;;;;34.00;31.17;;;;;;;;;;5072248;28;20461;-76
2020/12/17 07:28:14;;;;;;;35.97;33.17;;;;;;;;;;5073389;28;20477;-76
2020/12/17 07:30:51;;;;;;;34.77;32.00;;;;;;;;;;5073343;28;20432;-77
2020/12/17 07:33:31;;;;;;;34.80;31.97;;;;;;;;;;5073778;28;20790;-77
2020/12/17 07:35:58;;;;;;;34.70;32.00;;;;;;;;;;5073674;28;20433;-77
2020/12/17 07:38:25;;;;;;;35.23;32.53;;;;;;;;;;5073241;28;20467;-76
2020/12/17 07:40:54;;;;;;;35.53;32.57;;;;;;;;;;5055181;28;20457;-77
2020/12/17 07:43:24;;;;;;;35.67;32.80;;;;;;;;;;5073479;28;20430;-76
2020/12/17 07:45:52;;;;;;;34.43;31.17;;;;;;;;;;5073518;28;20448;-77
2020/12/17 07:48:38;;;;;;;33.33;30.70;;;;;;;;;;5073378;28;20456;-77
2020/12/17 07:51:06;;;;;;;34.40;31.60;;;;;;;;;;5073539;28;20447;-77
2020/12/17 07:53:33;;;;;;;35.33;32.33;;;;;;;;;;5073236;28;20431;-77
2020/12/17 07:56:01;;;;;;;32.30;29.80;;;;;;;;;;5072858;28;20416;-78
2020/12/17 07:58:29;;;;;;;33.50;30.77;;;;;;;;;;5074775;28;20517;-77
2020/12/17 08:00:55;;;;;;;34.23;31.53;;;;;;;;;;5073867;28;20445;-77
2020/12/17 08:03:23;;;;;;;32.33;29.43;;;;;;;;;;5076704;28;20450;-76
2020/12/17 08:05:50;;;;;;;34.17;31.53;;;;;;;;;;5077577;28;20421;-82
2020/12/17 08:08:17;;;;;;;35.17;32.23;;;;;;;;;;5059247;28;20946;-78
2020/12/17 08:10:46;;;;;;;33.30;30.70;;;;;;;;;;5076763;28;20412;-78
2020/12/17 08:13:13;;;;;;;33.40;30.80;;;;;;;;;;5077463;28;20435;-83
2020/12/17 08:15:41;;;;;;;30.63;28.40;;;;;;;;;;5077527;28;20743;-80
2020/12/17 08:18:08;;;;;;;32.90;30.30;;;;;;;;;;5077351;28;20420;-80
2020/12/17 08:20:36;;;;;;;30.93;28.70;;;;;;;;;;5077664;28;20438;-79
2020/12/17 08:23:03;;;;;;;31.07;28.67;;;;;;;;;;5059275;28;20452;-76
2020/12/17 08:25:30;;;;;;;32.67;30.20;;;;;;;;;;5076835;28;20807;-78
2020/12/17 08:27:57;;;;;;;30.77;28.47;;;;;;;;;;5076838;28;20444;-79
2020/12/17 08:30:24;;;;;;;31.63;29.37;;;;;;;;;;5077123;28;20463;-79
2020/12/17 08:32:53;;;;;;;32.00;29.50;;;;;;;;;;5077185;28;20903;-79
2020/12/17 08:35:21;;;;;;;31.67;29.33;;;;;;;;;;5077525;28;20407;-80
2020/12/17 08:37:49;;;;;;;33.40;31.00;;;;;;;;;;5077619;28;20469;-79
2020/12/17 08:40:16;;;;;;;32.90;30.40;;;;;;;;;;5076821;28;20459;-79
2020/12/17 08:42:45;;;;;;;32.83;30.10;;;;;;;;;;5077014;28;20429;-80
2020/12/17 08:45:13;;;;;;;31.87;29.30;;;;;;;;;;5059837;28;21197;-79
2020/12/17 08:47:41;;;;;;;33.67;30.97;;;;;;;;;;5058514;28;20448;-79
2020/12/17 08:50:10;;;;;;;35.93;32.20;;;;;;;;;;5058829;28;20441;-79
2020/12/17 08:52:37;;;;;;;33.20;30.40;;;;;;;;;;5075300;28;20441;-79
2020/12/17 08:55:05;;;;;;;31.70;29.20;;;;;;;;;;5076708;28;20418;-79
2020/12/17 08:57:31;;;;;;;33.00;30.47;;;;;;;;;;5076350;28;20951;-79
2020/12/17 08:59:58;;;;;;;32.40;29.90;;;;;;;;;;5075983;28;20819;-81
2020/12/17 09:02:25;;;;;;;32.93;30.27;;;;;;;;;;5076090;28;20481;-80
2020/12/17 09:04:56;;;;;;;32.07;29.50;;;;;;;;;;5076349;28;20434;-81
2020/12/17 09:07:27;;;;;;;33.50;30.90;;;;;;;;;;5076457;28;20416;-80
2020/12/17 09:10:16;;;;;;;32.63;30.10;;;;;;;;;;5059123;28;20442;-81
2020/12/17 09:12:43;;;;;;;33.17;30.57;;;;;;;;;;5076672;28;20433;-81
2020/12/17 09:15:11;;;;;;;31.90;29.50;;;;;;;;;;5076241;28;20444;-81
2020/12/17 09:17:39;;;;;;;30.50;28.30;;;;;;;;;;5076157;28;20415;-80
2020/12/17 09:20:15;;;;;;;31.30;29.00;;;;;;;;;;5058131;28;20489;-80
2020/12/17 09:22:43;;;;;;;31.77;29.43;;;;;;;;;;5076196;28;20485;-79
2020/12/17 09:25:10;;;;;;;26.77;24.60;;;;;;;;;;5074597;28;20806;-81
2020/12/17 09:27:38;;;;;;;33.43;30.73;;;;;;;;;;5075958;28;20496;-80
2020/12/17 09:30:10;;;;;;;31.23;28.93;;;;;;;;;;5057493;28;20518;-80
2020/12/17 09:32:38;;;;;;;32.27;29.53;;;;;;;;;;5075499;28;20423;-80
2020/12/17 09:35:06;;;;;;;35.33;32.70;;;;;;;;;;5075824;28;20770;-79
2020/12/17 09:37:33;;;;;;;33.33;30.87;;;;;;;;;;5075927;28;20434;-80
2020/12/17 09:40:00;;;;;;;31.47;28.97;;;;;;;;;;5057703;28;20471;-80
2020/12/17 09:42:27;;;;;;;30.77;28.27;;;;;;;;;;5075809;28;20423;-79
2020/12/17 09:44:54;;;;;;;29.90;27.90;;;;;;;;;;5075590;28;20499;-80
2020/12/17 09:47:31;;;;;;;31.47;28.83;;;;;;;;;;5075720;28;20461;-80
2020/12/17 09:50:07;;;;;;;29.80;27.60;;;;;;;;;;5075573;28;20415;-79
2020/12/17 09:52:34;;;;;;;28.57;26.67;;;;;;;;;;5075179;28;20431;-80
2020/12/17 09:55:02;;;;;;;31.50;28.83;;;;;;;;;;5075295;28;20461;-79
2020/12/17 09:57:36;;;;;;;31.77;29.20;;;;;;;;;;5075306;28;20441;-79
2020/12/17 10:00:04;;;;;;;31.57;29.37;;;;;;;;;;5075737;28;20550;-80
2020/12/17 10:02:31;;;;;;;32.23;29.27;;;;;;;;;;5075031;28;20492;-80
2020/12/17 10:04:58;;;;;;;32.43;29.70;;;;;;;;;;5057476;28;20416;-80
2020/12/17 10:07:25;;;;;;;30.77;28.47;;;;;;;;;;5075172;28;20418;-80
2020/12/17 10:09:52;;;;;;;30.97;28.70;;;;;;;;;;5075284;28;20423;-80
2020/12/17 10:12:19;;;;;;;30.53;28.07;;;;;;;;;;5075505;28;20437;-80
2020/12/17 10:14:46;;;;;;;28.58;26.67;;;;;;;;;;5075102;28;20415;-80
2020/12/17 10:17:13;;;;;;;31.70;29.20;;;;;;;;;;5075245;28;20279;-80
2020/12/17 10:19:40;;;;;;;30.97;28.67;;;;;;;;;;5074907;28;20459;-81
2020/12/17 10:22:07;;;;;;;30.57;28.37;;;;;;;;;;5074856;28;20424;-81
2020/12/17 10:24:33;;;;;;;31.40;28.90;;;;;;;;;;5073904;28;20854;-81
2020/12/17 10:27:01;;;;;;;30.30;27.87;;;;;;;;;;5074590;28;20455;-81
2020/12/17 10:29:29;;;;;;;30.80;28.70;;;;;;;;;;5075006;28;20419;-81
2020/12/17 10:31:56;;;;;;;30.90;28.90;;;;;;;;;;5074431;28;20449;-81
2020/12/17 10:34:23;;;;;;;30.70;28.30;;;;;;;;;;5075025;28;20408;-81
2020/12/17 10:36:50;;;;;;;30.23;28.13;;;;;;;;;;5075294;28;20750;-81
2020/12/17 10:39:17;;;;;;;32.30;30.00;;;;;;;;;;5074409;28;20466;-81
2020/12/17 10:41:44;;;;;;;30.00;27.90;;;;;;;;;;5074682;28;20448;-82
2020/12/17 10:44:11;;;;;;;27.83;25.73;;;;;;;;;;5074520;28;20964;-84
2020/12/17 10:46:39;;;;;;;28.07;26.10;;;;;;;;;;5073478;28;20458;-80
2020/12/17 10:49:06;;;;;;;28.43;26.57;;;;;;;;;;5074257;28;20526;-81
2020/12/17 10:51:33;;;;;;;28.48;26.50;;;;;;;;;;5074706;28;20486;-81
2020/12/17 10:54:00;;;;;;;28.00;26.00;;;;;;;;;;5074212;28;20198;-80
2020/12/17 10:56:27;;;;;;;27.60;25.37;;;;;;;;;;5074405;28;20412;-80
2020/12/17 10:58:54;;;;;;;28.23;26.23;;;;;;;;;;5074775;28;20564;-80
2020/12/17 11:01:21;;;;;;;27.17;25.27;;;;;;;;;;5074460;28;20449;-79
2020/12/17 11:03:50;;;;;;;27.57;25.50;;;;;;;;;;5074195;28;20443;-81
2020/12/17 11:06:17;;;;;;;27.00;25.30;;;;;;;;;;5074300;28;20475;-80
2020/12/17 11:08:44;;;;;;;24.70;23.10;;;;;;;;;;5074218;28;20429;-81
2020/12/17 11:11:11;;;;;;;26.53;24.53;;;;;;;;;;5074409;28;20431;-81
2020/12/17 11:13:38;;;;;;;24.73;23.03;;;;;;;;;;5074296;28;20854;-81
2020/12/17 11:16:05;;;;;;;24.00;22.60;;;;;;;;;;5074923;28;20456;-81
2020/12/17 11:18:33;;;;;;;26.57;24.80;;;;;;;;;;5074493;28;20441;-81
2020/12/17 11:21:00;;;;;;;24.90;23.30;;;;;;;;;;5074370;28;20845;-81
2020/12/17 11:23:28;;;;;;;25.67;23.97;;;;;;;;;;5056076;28;20480;-85
2020/12/17 11:25:55;;;;;;;25.63;23.93;;;;;;;;;;5071320;28;20846;-79
2020/12/17 11:28:22;;;;;;;24.37;22.50;;;;;;;;;;5073647;28;20413;-75
2020/12/17 11:30:49;;;;;;;24.60;22.80;;;;;;;;;;5072637;28;20466;-75
2020/12/17 11:33:16;;;;;;;23.70;22.13;;;;;;;;;;5073600;28;20428;-77
2020/12/17 11:35:43;;;;;;;23.23;21.83;;;;;;;;;;5073835;28;20420;-78
2020/12/17 11:38:14;;;;;;;23.83;22.33;;;;;;;;;;5078121;28;20413;-76
2020/12/17 11:40:41;;;;;;;24.03;22.43;;;;;;;;;;5077544;28;20916;-77
2020/12/17 11:43:08;;;;;;;25.50;24.00;;;;;;;;;;5077573;28;20448;-82
2020/12/17 11:45:35;;;;;;;24.37;22.60;;;;;;;;;;5077741;28;20458;-76
2020/12/17 11:48:02;;;;;;;23.20;21.80;;;;;;;;;;5075500;28;20416;-77
2020/12/17 11:50:29;;;;;;;24.10;22.60;;;;;;;;;;5076815;28;20424;-79
2020/12/17 11:52:57;;;;;;;22.83;21.43;;;;;;;;;;5076187;28;20502;-79
2020/12/17 11:55:25;;;;;;;23.00;21.70;;;;;;;;;;5059597;28;20420;-78
2020/12/17 11:57:53;;;;;;;24.00;22.40;;;;;;;;;;5077193;28;20411;-78
2020/12/17 12:00:20;;;;;;;23.67;22.17;;;;;;;;;;5076656;28;20869;-77
2020/12/17 12:02:48;;;;;;;23.97;22.57;;;;;;;;;;5076924;28;20507;-77
2020/12/17 12:05:17;;;;;;;24.83;23.23;;;;;;;;;;5077109;28;20424;-78
2020/12/17 12:07:45;;;;;;;25.47;23.77;;;;;;;;;;5077460;28;20440;-78
2020/12/17 12:10:12;;;;;;;23.30;21.80;;;;;;;;;;5078092;28;20507;-77
2020/12/17 12:12:40;;;;;;;23.07;21.57;;;;;;;;;;5076891;28;20416;-79
2020/12/17 12:15:07;;;;;;;23.17;21.87;;;;;;;;;;5077031;28;20424;-79
2020/12/17 12:17:34;;;;;;;24.37;22.87;;;;;;;;;;5077152;28;20837;-78
2020/12/17 12:20:01;;;;;;;23.40;22.00;;;;;;;;;;5076999;28;20459;-78
2020/12/17 12:22:28;;;;;;;23.50;21.85;;;;;;;;;;5076860;28;20980;-80
2020/12/17 12:24:55;;;;;;;23.10;21.70;;;;;;;;;;5076952;28;20584;-78
2020/12/17 12:27:21;;;;;;;24.23;22.80;;;;;;;;;;5077311;28;20412;-79
2020/12/17 12:29:49;;;;;;;23.03;21.57;;;;;;;;;;5077117;28;20550;-79
2020/12/17 12:32:16;;;;;;;24.47;22.90;;;;;;;;;;5076654;28;20407;-79
2020/12/17 12:34:43;;;;;;;24.37;22.80;;;;;;;;;;5076831;28;20803;-79
2020/12/17 12:37:10;;;;;;;23.57;22.07;;;;;;;;;;5077305;28;20419;-80
2020/12/17 12:39:37;;;;;;;22.83;21.30;;;;;;;;;;5076746;28;20451;-80
2020/12/17 12:42:06;;;;;;;23.40;22.00;;;;;;;;;;5078226;28;20913;-80
2020/12/17 12:44:32;;;;;;;23.07;21.70;;;;;;;;;;5077203;28;20896;-80
2020/12/17 12:47:02;;;;;;;22.50;21.10;;;;;;;;;;5076980;28;20418;-80
2020/12/17 12:49:29;;;;;;;23.20;21.70;;;;;;;;;;5058338;28;20407;-81
2020/12/17 12:51:56;;;;;;;23.27;21.73;;;;;;;;;;5076846;28;20430;-79
2020/12/17 12:54:23;;;;;;;22.63;21.33;;;;;;;;;;5076563;28;20450;-80
2020/12/17 12:56:52;;;;;;;23.50;21.70;;;;;;;;;;5075821;28;20406;-77
2020/12/17 12:59:19;;;;;;;23.57;21.63;;;;;;;;;;5076149;28;20790;-78
2020/12/17 13:01:46;;;;;;;23.00;21.40;;;;;;;;;;5075533;28;20765;-77
2020/12/17 13:04:15;;;;;;;24.90;23.30;;;;;;;;;;5075837;28;20449;-77
2020/12/17 13:06:42;;;;;;;22.97;21.50;;;;;;;;;;5076054;28;20446;-76
2020/12/17 13:09:11;;;;;;;23.80;22.20;;;;;;;;;;5058336;28;20493;-76
2020/12/17 13:11:38;;;;;;;23.67;22.00;;;;;;;;;;5076068;28;20476;-78
2020/12/17 13:14:06;;;;;;;23.70;22.03;;;;;;;;;;5075619;28;20445;-77
2020/12/17 13:16:35;;;;;;;25.37;23.87;;;;;;;;;;5075726;28;20511;-78
2020/12/17 13:19:02;;;;;;;25.10;23.47;;;;;;;;;;5075561;28;20484;-78
2020/12/17 13:21:30;;;;;;;24.20;22.27;;;;;;;;;;5076043;28;20457;-80
2020/12/17 13:23:57;;;;;;;24.07;22.40;;;;;;;;;;5076158;28;20440;-79
2020/12/17 13:26:24;;;;;;;22.53;21.13;;;;;;;;;;5076187;28;20416;-80
2020/12/17 13:28:51;;;;;;;22.80;21.30;;;;;;;;;;5075998;28;20420;-80
2020/12/17 13:31:22;;;;;;;21.80;20.50;;;;;;;;;;5075969;28;20442;-79
2020/12/17 13:33:49;;;;;;;22.73;21.27;;;;;;;;;;5075934;28;20408;-81
2020/12/17 13:36:16;;;;;;;23.77;21.97;;;;;;;;;;5075980;28;20949;-81
2020/12/17 13:38:44;;;;;;;24.37;22.50;;;;;;;;;;5076217;28;20510;-81
2020/12/17 13:41:11;;;;;;;23.07;21.50;;;;;;;;;;5075763;28;20449;-79
2020/12/17 13:43:38;;;;;;;24.43;22.47;;;;;;;;;;5075246;28;20407;-79
2020/12/17 13:46:04;;;;;;;23.50;21.90;;;;;;;;;;5074977;28;20476;-80
2020/12/17 13:48:32;;;;;;;23.20;21.47;;;;;;;;;;5075851;28;20416;-79
2020/12/17 13:50:59;;;;;;;22.93;21.50;;;;;;;;;;5075508;28;20832;-79
2020/12/17 13:53:25;;;;;;;23.57;21.90;;;;;;;;;;5075480;28;20479;-79
2020/12/17 13:55:54;;;;;;;23.90;22.10;;;;;;;;;;5075006;28;20444;-79
2020/12/17 13:58:21;;;;;;;23.37;21.80;;;;;;;;;;5075508;28;20416;-79
2020/12/17 14:00:48;;;;;;;25.33;23.23;;;;;;;;;;5074949;28;20476;-79
2020/12/17 14:03:15;;;;;;;25.60;23.63;;;;;;;;;;5074741;28;20485;-80
2020/12/17 14:05:42;;;;;;;25.80;23.90;;;;;;;;;;5074938;28;20877;-79
2020/12/17 14:08:08;;;;;;;23.90;22.27;;;;;;;;;;5075053;28;20433;-79
2020/12/17 14:10:35;;;;;;;26.93;25.10;;;;;;;;;;5075164;28;20435;-79
2020/12/17 14:13:03;;;;;;;26.70;25.20;;;;;;;;;;5074758;28;20828;-80
2020/12/17 14:15:30;;;;;;;24.93;22.97;;;;;;;;;;5074577;28;20907;-79
2020/12/17 14:17:57;;;;;;;23.87;22.17;;;;;;;;;;5074681;28;20412;-79
2020/12/17 14:20:23;;;;;;;23.30;21.77;;;;;;;;;;5074759;28;20488;-79